Time;durP1;ratioP1;P1;durP2;ratioP2;P2;SDS_P1;SDS_P2;PMS_P1;PMS_P2;Temp;Humidity;BMP_temperature;BMP_pressure;BME280_temperature;BME280_humidity;BME280_pressure;Samples;Min_cycle;Max_cycle;Signal;HPM_P1;HPM_P2
2023/06/02 00:01:20;;;;;;;9.52;2.90;;;;;;;;;;5026449;28;20114;-75
2023/06/02 00:03:47;;;;;;;9.88;3.72;;;;;;;;;;5025388;28;20395;-75
2023/06/02 00:06:18;;;;;;;11.48;3.17;;;;;;;;;;5021180;28;20045;-75
2023/06/02 00:08:44;;;;;;;12.60;3.20;;;;;;;;;;5024346;28;20084;-75
2023/06/02 00:11:11;;;;;;;13.30;3.03;;;;;;;;;;5024918;28;20049;-75
2023/06/02 00:13:38;;;;;;;16.67;3.35;;;;;;;;;;5022222;28;20124;-75
2023/06/02 00:16:04;;;;;;;7.45;2.83;;;;;;;;;;5017682;28;20041;-75
2023/06/02 00:18:36;;;;;;;12.75;3.33;;;;;;;;;;5017851;28;20513;-75
2023/06/02 00:21:02;;;;;;;6.68;3.10;;;;;;;;;;5019828;28;20523;-75
2023/06/02 00:23:29;;;;;;;11.00;3.97;;;;;;;;;;5023874;28;20060;-75
2023/06/02 00:25:55;;;;;;;13.50;3.78;;;;;;;;;;5032071;28;20045;-75
2023/06/02 00:28:21;;;;;;;12.43;3.10;;;;;;;;;;5028595;28;20111;-75
2023/06/02 00:30:47;;;;;;;14.68;3.70;;;;;;;;;;5016242;28;20037;-75
2023/06/02 00:33:14;;;;;;;10.70;4.07;;;;;;;;;;5035673;28;20112;-75
2023/06/02 00:35:40;;;;;;;9.38;3.88;;;;;;;;;;5033289;28;20092;-74
2023/06/02 00:38:06;;;;;;;17.10;3.40;;;;;;;;;;5023336;28;20050;-75
2023/06/02 00:40:32;;;;;;;13.07;3.30;;;;;;;;;;5012752;28;20046;-75
2023/06/02 00:43:02;;;;;;;14.32;4.43;;;;;;;;;;5015798;28;20029;-75
2023/06/02 00:45:28;;;;;;;10.70;3.45;;;;;;;;;;5014331;28;20042;-75
2023/06/02 00:47:55;;;;;;;13.80;3.42;;;;;;;;;;5012897;28;20112;-75
2023/06/02 00:50:21;;;;;;;9.68;3.28;;;;;;;;;;5023157;28;20056;-75
2023/06/02 00:52:50;;;;;;;10.90;3.72;;;;;;;;;;5030915;28;20046;-75
2023/06/02 00:55:16;;;;;;;16.75;3.58;;;;;;;;;;5023644;28;20116;-75
2023/06/02 00:57:43;;;;;;;12.40;3.08;;;;;;;;;;5027601;28;20476;-75
2023/06/02 01:00:09;;;;;;;11.43;4.05;;;;;;;;;;5011205;28;20061;-75
2023/06/02 01:02:35;;;;;;;10.85;3.35;;;;;;;;;;5022010;28;20033;-75
2023/06/02 01:05:10;;;;;;;7.82;3.38;;;;;;;;;;5019093;28;20492;-75
2023/06/02 01:07:39;;;;;;;11.52;3.40;;;;;;;;;;5029706;28;20052;-75
2023/06/02 01:10:07;;;;;;;13.52;3.70;;;;;;;;;;5031965;28;20057;-75
2023/06/02 01:12:33;;;;;;;10.60;3.15;;;;;;;;;;5033771;28;20060;-75
2023/06/02 01:15:00;;;;;;;9.48;3.42;;;;;;;;;;5035463;28;20154;-75
2023/06/02 01:17:35;;;;;;;13.18;3.47;;;;;;;;;;5036037;28;20053;-75
2023/06/02 01:20:03;;;;;;;8.90;3.35;;;;;;;;;;5019365;28;20111;-75
2023/06/02 01:22:31;;;;;;;9.93;3.45;;;;;;;;;;5015746;28;20514;-75
2023/06/02 01:25:00;;;;;;;11.02;3.85;;;;;;;;;;5024808;28;20046;-75
2023/06/02 01:27:26;;;;;;;14.80;3.40;;;;;;;;;;5021794;28;20056;-75
2023/06/02 01:29:54;;;;;;;13.68;4.55;;;;;;;;;;5034882;28;20037;-75
2023/06/02 01:32:20;;;;;;;12.40;3.42;;;;;;;;;;5027345;28;20060;-75
2023/06/02 01:34:51;;;;;;;8.85;2.67;;;;;;;;;;5035097;28;20124;-75
2023/06/02 01:37:19;;;;;;;11.68;3.40;;;;;;;;;;5034316;28;20038;-75
2023/06/02 01:39:46;;;;;;;13.80;3.85;;;;;;;;;;5044556;28;20049;-75
2023/06/02 01:42:13;;;;;;;10.02;3.00;;;;;;;;;;5035680;28;20069;-75
2023/06/02 01:44:39;;;;;;;15.13;3.88;;;;;;;;;;5034757;28;20045;-75
2023/06/02 01:47:05;;;;;;;13.48;3.55;;;;;;;;;;5033756;28;20482;-75
2023/06/02 01:49:32;;;;;;;11.13;3.78;;;;;;;;;;5032762;28;20119;-75
2023/06/02 01:51:58;;;;;;;11.88;3.45;;;;;;;;;;5033389;28;20045;-75
2023/06/02 01:54:24;;;;;;;12.15;3.17;;;;;;;;;;5034995;28;20374;-75
2023/06/02 01:56:50;;;;;;;11.93;3.67;;;;;;;;;;5018834;28;20104;-75
2023/06/02 01:59:17;;;;;;;9.10;3.15;;;;;;;;;;5051544;28;20495;-75
2023/06/02 02:01:44;;;;;;;12.45;3.50;;;;;;;;;;5015196;28;20121;-75
2023/06/02 02:04:11;;;;;;;13.98;3.40;;;;;;;;;;5014844;28;20108;-75
2023/06/02 02:06:39;;;;;;;11.68;3.20;;;;;;;;;;5030432;28;20054;-75
2023/06/02 02:09:07;;;;;;;12.10;3.45;;;;;;;;;;5015363;28;20119;-75
2023/06/02 02:11:33;;;;;;;14.68;3.40;;;;;;;;;;5020015;28;20049;-75
2023/06/02 02:14:00;;;;;;;12.65;3.40;;;;;;;;;;5039038;28;20053;-75
2023/06/02 02:16:26;;;;;;;13.52;3.40;;;;;;;;;;5019467;28;20115;-75
2023/06/02 02:18:52;;;;;;;20.10;4.82;;;;;;;;;;5044944;28;20046;-75
2023/06/02 02:21:19;;;;;;;11.95;3.85;;;;;;;;;;5030877;28;20046;-75
2023/06/02 02:23:45;;;;;;;17.15;4.72;;;;;;;;;;5014479;28;20045;-75
2023/06/02 02:26:11;;;;;;;12.90;3.97;;;;;;;;;;5015976;28;20050;-75
2023/06/02 02:28:37;;;;;;;14.25;3.72;;;;;;;;;;5038036;28;20053;-75
2023/06/02 02:31:04;;;;;;;14.23;3.38;;;;;;;;;;5037927;28;20041;-75
2023/06/02 02:33:31;;;;;;;17.10;3.38;;;;;;;;;;5033359;28;20049;-75
2023/06/02 02:35:57;;;;;;;13.98;4.10;;;;;;;;;;5031806;28;20095;-75
2023/06/02 02:38:23;;;;;;;11.82;3.45;;;;;;;;;;5034377;28;20045;-75
2023/06/02 02:40:49;;;;;;;13.40;3.58;;;;;;;;;;5037039;28;20189;-75
2023/06/02 02:43:17;;;;;;;13.88;4.78;;;;;;;;;;5016257;28;20130;-75
2023/06/02 02:45:44;;;;;;;10.35;3.70;;;;;;;;;;5033885;28;20042;-75
2023/06/02 02:48:10;;;;;;;17.67;3.88;;;;;;;;;;5034121;28;20049;-75
2023/06/02 02:50:36;;;;;;;14.98;3.58;;;;;;;;;;5034336;28;20041;-75
2023/06/02 02:53:02;;;;;;;24.42;5.07;;;;;;;;;;5034544;28;20080;-75
2023/06/02 02:55:32;;;;;;;16.58;4.03;;;;;;;;;;5032133;28;20037;-75
2023/06/02 02:57:59;;;;;;;14.65;3.45;;;;;;;;;;5014532;28;20050;-75
2023/06/02 03:00:25;;;;;;;14.05;3.60;;;;;;;;;;5017409;28;20129;-75
2023/06/02 03:02:51;;;;;;;12.70;3.80;;;;;;;;;;5021536;28;20103;-75
2023/06/02 03:05:17;;;;;;;12.88;3.40;;;;;;;;;;5012537;28;20106;-75
2023/06/02 03:07:44;;;;;;;13.63;4.60;;;;;;;;;;5022212;28;20042;-75
2023/06/02 03:10:10;;;;;;;16.05;4.55;;;;;;;;;;5013350;28;20053;-75
2023/06/02 03:12:37;;;;;;;16.10;4.13;;;;;;;;;;5028296;28;20045;-75
2023/06/02 03:15:03;;;;;;;14.32;3.92;;;;;;;;;;5050790;28;20041;-75
2023/06/02 03:17:29;;;;;;;16.15;4.20;;;;;;;;;;5033774;28;20095;-75
2023/06/02 03:19:56;;;;;;;16.63;3.88;;;;;;;;;;5025807;28;20060;-75
2023/06/02 03:22:22;;;;;;;11.90;3.70;;;;;;;;;;5014031;28;20077;-75
2023/06/02 03:24:48;;;;;;;13.70;3.85;;;;;;;;;;5026330;28;20038;-75
2023/06/02 03:27:15;;;;;;;20.00;5.28;;;;;;;;;;5033447;28;20146;-75
2023/06/02 03:29:42;;;;;;;14.35;4.00;;;;;;;;;;5031669;28;20525;-75
2023/06/02 03:32:11;;;;;;;12.32;4.15;;;;;;;;;;5023768;28;20426;-75
2023/06/02 03:34:40;;;;;;;12.02;4.53;;;;;;;;;;5052433;28;20041;-75
2023/06/02 03:37:07;;;;;;;13.45;3.55;;;;;;;;;;5053030;28;20048;-75
2023/06/02 03:39:33;;;;;;;13.13;3.65;;;;;;;;;;5052709;28;20045;-75
2023/06/02 03:41:59;;;;;;;12.88;4.07;;;;;;;;;;5052747;28;20372;-75
2023/06/02 03:44:25;;;;;;;23.23;5.60;;;;;;;;;;5033565;28;20045;-75
2023/06/02 03:46:51;;;;;;;15.55;4.10;;;;;;;;;;5049653;28;20503;-75
2023/06/02 03:49:17;;;;;;;18.98;4.45;;;;;;;;;;5037506;28;20494;-75
2023/06/02 03:51:43;;;;;;;13.77;4.15;;;;;;;;;;5018754;28;20045;-75
2023/06/02 03:54:09;;;;;;;13.65;4.10;;;;;;;;;;5032849;28;20160;-75
2023/06/02 03:56:36;;;;;;;14.60;3.80;;;;;;;;;;5033311;28;20464;-75
2023/06/02 03:59:02;;;;;;;13.45;3.42;;;;;;;;;;5032601;28;20124;-75
2023/06/02 04:01:28;;;;;;;16.20;4.47;;;;;;;;;;5047800;28;20120;-75
2023/06/02 04:03:54;;;;;;;15.10;4.40;;;;;;;;;;5049903;28;20523;-75
2023/06/02 04:06:21;;;;;;;15.80;4.18;;;;;;;;;;5033322;28;20046;-75
2023/06/02 04:08:47;;;;;;;22.23;4.55;;;;;;;;;;5030942;28;20099;-75
2023/06/02 04:11:13;;;;;;;15.05;5.00;;;;;;;;;;5012928;28;20062;-75
2023/06/02 04:13:40;;;;;;;23.15;5.50;;;;;;;;;;5013709;28;20054;-75
2023/06/02 04:16:07;;;;;;;18.08;5.07;;;;;;;;;;5031380;28;20049;-75
2023/06/02 04:18:36;;;;;;;18.45;5.00;;;;;;;;;;5032540;28;20099;-75
2023/06/02 04:21:02;;;;;;;20.00;4.57;;;;;;;;;;5014776;28;20076;-75
2023/06/02 04:23:28;;;;;;;20.17;4.25;;;;;;;;;;5031126;28;20125;-75
2023/06/02 04:25:54;;;;;;;16.70;5.20;;;;;;;;;;5030376;28;20176;-75
2023/06/02 04:28:20;;;;;;;15.20;4.57;;;;;;;;;;5032825;28;20118;-75
2023/06/02 04:30:48;;;;;;;15.13;4.63;;;;;;;;;;5032669;28;20056;-75
2023/06/02 04:33:15;;;;;;;13.02;4.07;;;;;;;;;;5031877;28;20168;-75
2023/06/02 04:35:41;;;;;;;18.52;4.63;;;;;;;;;;5014630;28;20045;-75
2023/06/02 04:38:09;;;;;;;10.00;4.35;;;;;;;;;;5041375;28;20037;-75
2023/06/02 04:40:37;;;;;;;18.33;4.90;;;;;;;;;;5040641;28;20120;-75
2023/06/02 04:43:03;;;;;;;12.75;3.95;;;;;;;;;;5022838;28;20551;-75
2023/06/02 04:45:30;;;;;;;11.90;4.53;;;;;;;;;;5021659;28;20049;-75
2023/06/02 04:47:56;;;;;;;13.55;4.70;;;;;;;;;;5038028;28;20038;-75
2023/06/02 04:50:22;;;;;;;17.70;4.95;;;;;;;;;;5036460;28;20053;-75
2023/06/02 04:52:48;;;;;;;14.77;4.88;;;;;;;;;;5036118;28;20045;-75
2023/06/02 04:55:14;;;;;;;17.63;5.05;;;;;;;;;;5036308;28;20045;-75
2023/06/02 04:57:41;;;;;;;14.23;4.20;;;;;;;;;;5036483;28;20057;-75
2023/06/02 05:00:08;;;;;;;22.27;4.75;;;;;;;;;;5039269;28;20043;-74
2023/06/02 05:02:35;;;;;;;18.27;5.07;;;;;;;;;;5055556;28;20052;-75
2023/06/02 05:05:02;;;;;;;14.35;4.50;;;;;;;;;;5055661;28;20402;-75
2023/06/02 05:07:29;;;;;;;9.73;4.35;;;;;;;;;;5048736;28;20054;-75
2023/06/02 05:09:55;;;;;;;14.70;4.18;;;;;;;;;;5015875;28;20496;-75
2023/06/02 05:12:21;;;;;;;16.33;5.15;;;;;;;;;;5024986;28;20050;-75
2023/06/02 05:14:47;;;;;;;17.40;4.95;;;;;;;;;;5025455;28;20045;-75
2023/06/02 05:17:13;;;;;;;17.55;4.68;;;;;;;;;;5050791;28;20079;-75
2023/06/02 05:19:42;;;;;;;12.25;4.45;;;;;;;;;;5035770;28;20180;-75
2023/06/02 05:22:08;;;;;;;14.85;5.35;;;;;;;;;;5035862;28;20103;-75
2023/06/02 05:24:34;;;;;;;15.50;4.80;;;;;;;;;;5035424;28;20127;-75
2023/06/02 05:27:00;;;;;;;15.68;5.93;;;;;;;;;;5051862;28;20053;-76
2023/06/02 05:29:26;;;;;;;18.88;6.00;;;;;;;;;;5047353;28;20144;-75
2023/06/02 05:31:52;;;;;;;18.05;5.35;;;;;;;;;;5054446;28;20045;-75
2023/06/02 05:34:19;;;;;;;20.15;5.47;;;;;;;;;;5034012;28;20095;-76
2023/06/02 05:36:45;;;;;;;19.77;5.55;;;;;;;;;;5018729;28;20056;-75
2023/06/02 05:39:11;;;;;;;16.05;5.45;;;;;;;;;;5042507;28;20038;-75
2023/06/02 05:41:37;;;;;;;17.92;5.15;;;;;;;;;;5052212;28;20106;-75
2023/06/02 05:44:03;;;;;;;19.80;5.82;;;;;;;;;;5033251;28;20041;-75
2023/06/02 05:46:29;;;;;;;16.95;5.38;;;;;;;;;;5056965;28;20041;-75
2023/06/02 05:48:55;;;;;;;19.77;5.53;;;;;;;;;;5046317;28;20050;-75
2023/06/02 05:51:21;;;;;;;20.77;5.68;;;;;;;;;;5033495;28;20049;-75
2023/06/02 05:53:49;;;;;;;27.10;5.72;;;;;;;;;;5035253;28;20096;-75
2023/06/02 05:56:16;;;;;;;15.27;5.25;;;;;;;;;;5021670;28;20055;-75
2023/06/02 05:58:42;;;;;;;21.42;6.03;;;;;;;;;;5033985;28;20440;-75
2023/06/02 06:01:09;;;;;;;20.15;5.32;;;;;;;;;;5053514;28;20041;-75
2023/06/02 06:03:35;;;;;;;19.17;5.28;;;;;;;;;;5035034;28;20112;-75
2023/06/02 06:06:01;;;;;;;19.08;5.80;;;;;;;;;;5034908;28;20060;-75
2023/06/02 06:08:28;;;;;;;17.25;5.55;;;;;;;;;;5034811;28;20053;-75
2023/06/02 06:10:54;;;;;;;18.63;5.35;;;;;;;;;;5033091;28;20096;-75
2023/06/02 06:13:20;;;;;;;24.42;5.80;;;;;;;;;;5035187;28;20073;-75
2023/06/02 06:15:47;;;;;;;12.82;4.88;;;;;;;;;;5032846;28;20073;-75
2023/06/02 06:18:13;;;;;;;19.05;5.40;;;;;;;;;;5034792;28;20053;-75
2023/06/02 06:20:42;;;;;;;22.02;5.25;;;;;;;;;;5034623;28;20483;-75
2023/06/02 06:23:08;;;;;;;19.85;6.63;;;;;;;;;;5034450;28;20487;-75
2023/06/02 06:25:34;;;;;;;20.95;5.78;;;;;;;;;;5052629;28;20458;-75
2023/06/02 06:28:00;;;;;;;19.00;5.38;;;;;;;;;;5023154;28;20056;-75
2023/06/02 06:30:26;;;;;;;20.50;4.82;;;;;;;;;;5014627;28;20053;-75
2023/06/02 06:32:52;;;;;;;18.33;5.15;;;;;;;;;;5049088;28;20041;-76
2023/06/02 06:35:18;;;;;;;18.38;5.40;;;;;;;;;;5020404;28;20049;-75
2023/06/02 06:37:44;;;;;;;20.27;5.30;;;;;;;;;;5015132;28;20044;-75
2023/06/02 06:40:10;;;;;;;20.70;6.05;;;;;;;;;;5017413;28;20060;-75
2023/06/02 06:42:36;;;;;;;21.23;6.05;;;;;;;;;;5031125;28;20045;-75
2023/06/02 06:45:02;;;;;;;17.92;5.65;;;;;;;;;;5027506;28;20400;-75
2023/06/02 06:47:28;;;;;;;22.27;6.38;;;;;;;;;;5026650;28;20038;-75
2023/06/02 06:49:54;;;;;;;21.83;5.40;;;;;;;;;;5022268;28;20041;-75
2023/06/02 06:52:20;;;;;;;22.85;5.35;;;;;;;;;;5032561;28;20069;-75
2023/06/02 06:54:46;;;;;;;26.17;5.75;;;;;;;;;;5024322;28;20111;-75
2023/06/02 06:57:13;;;;;;;18.75;5.50;;;;;;;;;;5020002;28;20480;-75
2023/06/02 06:59:42;;;;;;;22.90;6.35;;;;;;;;;;5024586;28;20159;-75
2023/06/02 07:02:08;;;;;;;23.48;5.95;;;;;;;;;;5053601;28;20048;-75
2023/06/02 07:04:35;;;;;;;22.92;6.15;;;;;;;;;;5035323;28;20038;-75
2023/06/02 07:07:01;;;;;;;20.25;5.60;;;;;;;;;;5021392;28;20393;-76
2023/06/02 07:09:27;;;;;;;17.75;5.40;;;;;;;;;;5031801;28;20188;-77
2023/06/02 07:11:53;;;;;;;22.23;5.80;;;;;;;;;;5022780;28;20555;-75
2023/06/02 07:14:19;;;;;;;21.08;4.85;;;;;;;;;;5027078;28;20085;-76
2023/06/02 07:16:46;;;;;;;30.25;7.13;;;;;;;;;;5026790;28;20076;-76
2023/06/02 07:19:12;;;;;;;23.73;5.88;;;;;;;;;;5032347;28;20120;-76
2023/06/02 07:21:38;;;;;;;16.52;5.43;;;;;;;;;;5023846;28;20526;-76
2023/06/02 07:24:04;;;;;;;16.38;4.60;;;;;;;;;;5051440;28;20044;-76
2023/06/02 07:26:30;;;;;;;20.02;5.28;;;;;;;;;;5053281;28;20053;-76
2023/06/02 07:28:56;;;;;;;21.58;5.50;;;;;;;;;;5038978;28;20518;-76
2023/06/02 07:31:23;;;;;;;17.30;5.80;;;;;;;;;;5034717;28;20045;-75
2023/06/02 07:33:49;;;;;;;19.45;5.18;;;;;;;;;;5034059;28;20077;-76
2023/06/02 07:36:15;;;;;;;13.85;4.45;;;;;;;;;;5032246;28;20072;-75
2023/06/02 07:38:41;;;;;;;15.82;5.13;;;;;;;;;;5033954;28;20057;-76
2023/06/02 07:41:07;;;;;;;19.40;5.00;;;;;;;;;;5037921;28;20753;-76
2023/06/02 07:43:33;;;;;;;17.88;5.07;;;;;;;;;;5053870;28;20107;-78
2023/06/02 07:45:59;;;;;;;19.30;5.05;;;;;;;;;;5051645;28;20052;-76
2023/06/02 07:48:25;;;;;;;19.15;5.35;;;;;;;;;;5050940;28;20124;-76
2023/06/02 07:50:51;;;;;;;17.05;4.97;;;;;;;;;;5031726;28;20081;-76
2023/06/02 07:53:17;;;;;;;16.80;4.25;;;;;;;;;;5033344;28;20053;-75
2023/06/02 07:55:45;;;;;;;15.32;5.05;;;;;;;;;;5028063;28;20102;-76
2023/06/02 07:58:11;;;;;;;23.75;5.00;;;;;;;;;;5034474;28;20057;-77
2023/06/02 08:00:38;;;;;;;15.27;4.80;;;;;;;;;;5024350;28;20052;-76
2023/06/02 08:03:04;;;;;;;23.45;5.45;;;;;;;;;;5033335;28;20049;-76
2023/06/02 08:05:30;;;;;;;16.77;4.95;;;;;;;;;;5024235;28;20046;-76
2023/06/02 08:07:56;;;;;;;14.88;4.20;;;;;;;;;;5013861;28;20440;-76
2023/06/02 08:10:22;;;;;;;18.85;4.55;;;;;;;;;;5028331;28;20060;-76
2023/06/02 08:12:48;;;;;;;14.27;3.97;;;;;;;;;;5031904;28;20045;-76
2023/06/02 08:15:14;;;;;;;20.75;5.30;;;;;;;;;;5033018;28;20045;-76
2023/06/02 08:17:40;;;;;;;17.95;5.68;;;;;;;;;;5018494;28;20049;-76
2023/06/02 08:20:07;;;;;;;16.85;4.63;;;;;;;;;;5012872;28;20049;-76
2023/06/02 08:22:34;;;;;;;15.50;4.20;;;;;;;;;;5023898;28;20052;-76
2023/06/02 08:25:00;;;;;;;16.42;3.88;;;;;;;;;;5041164;28;20049;-76
2023/06/02 08:27:27;;;;;;;14.52;3.97;;;;;;;;;;5043022;28;20435;-76
2023/06/02 08:29:56;;;;;;;17.48;5.15;;;;;;;;;;5033174;28;20438;-76
2023/06/02 08:32:22;;;;;;;20.52;5.03;;;;;;;;;;5030984;28;20499;-76
2023/06/02 08:34:51;;;;;;;17.75;3.70;;;;;;;;;;5026759;28;20049;-76
2023/06/02 08:37:18;;;;;;;10.68;3.47;;;;;;;;;;5018336;28;20137;-76
2023/06/02 08:39:45;;;;;;;18.25;4.45;;;;;;;;;;5031490;28;20395;-76
2023/06/02 08:42:11;;;;;;;9.70;3.60;;;;;;;;;;5030017;28;20491;-76
2023/06/02 08:44:38;;;;;;;9.13;3.30;;;;;;;;;;5034554;28;20056;-76
2023/06/02 08:47:04;;;;;;;9.30;3.42;;;;;;;;;;5037349;28;20095;-76
2023/06/02 08:49:35;;;;;;;8.95;3.53;;;;;;;;;;5036902;28;20050;-76
2023/06/02 08:52:03;;;;;;;9.38;3.88;;;;;;;;;;5018628;28;20107;-76
2023/06/02 08:54:33;;;;;;;10.02;3.10;;;;;;;;;;5035192;28;20459;-76
2023/06/02 08:57:03;;;;;;;8.30;3.28;;;;;;;;;;5037042;28;20091;-78
2023/06/02 08:59:29;;;;;;;10.05;2.97;;;;;;;;;;5035013;28;20460;-76
2023/06/02 09:01:55;;;;;;;8.48;3.10;;;;;;;;;;5044042;28;20515;-76
2023/06/02 09:04:21;;;;;;;7.88;2.90;;;;;;;;;;5020369;28;20068;-77
2023/06/02 09:06:49;;;;;;;7.90;2.65;;;;;;;;;;5016222;28;20472;-76
2023/06/02 09:09:15;;;;;;;6.00;3.00;;;;;;;;;;5016634;28;20045;-76
2023/06/02 09:11:56;;;;;;;9.00;2.85;;;;;;;;;;5033430;28;20129;-76
2023/06/02 09:14:23;;;;;;;7.95;3.25;;;;;;;;;;5031244;28;20081;-76
2023/06/02 09:16:49;;;;;;;8.27;2.60;;;;;;;;;;5036481;28;20494;-76
2023/06/02 09:19:15;;;;;;;8.20;3.03;;;;;;;;;;5035710;28;20126;-76
2023/06/02 09:21:41;;;;;;;8.45;2.83;;;;;;;;;;5030264;28;20061;-76
2023/06/02 09:24:07;;;;;;;7.03;2.78;;;;;;;;;;5016336;28;20049;-76
2023/06/02 09:26:33;;;;;;;7.75;2.80;;;;;;;;;;5016132;28;20048;-76
2023/06/02 09:29:09;;;;;;;6.38;2.75;;;;;;;;;;5016412;28;20089;-76
2023/06/02 09:31:44;;;;;;;11.40;3.13;;;;;;;;;;5021041;28;20045;-76
2023/06/02 09:34:10;;;;;;;7.00;2.78;;;;;;;;;;5034597;28;20045;-77
2023/06/02 09:36:38;;;;;;;9.77;3.33;;;;;;;;;;5024485;28;20045;-76
2023/06/02 09:39:05;;;;;;;8.00;3.00;;;;;;;;;;5035936;28;20057;-75
2023/06/02 09:41:31;;;;;;;8.40;3.10;;;;;;;;;;5034116;28;20080;-76
2023/06/02 09:43:57;;;;;;;7.50;2.63;;;;;;;;;;5036572;28;20503;-77
2023/06/02 09:46:24;;;;;;;6.72;2.95;;;;;;;;;;5015032;28;20042;-81
2023/06/02 09:48:57;;;;;;;9.23;2.80;;;;;;;;;;5017205;28;20030;-76
2023/06/02 09:51:23;;;;;;;6.88;2.55;;;;;;;;;;5019144;28;20048;-78
2023/06/02 09:53:50;;;;;;;9.13;2.85;;;;;;;;;;5015080;28;20089;-76
2023/06/02 09:56:16;;;;;;;10.60;2.50;;;;;;;;;;5030003;28;20044;-76
2023/06/02 09:58:42;;;;;;;7.28;2.38;;;;;;;;;;5041236;28;20051;-76
2023/06/02 10:01:11;;;;;;;7.95;3.15;;;;;;;;;;5034496;28;20073;-76
2023/06/02 10:03:38;;;;;;;5.50;2.20;;;;;;;;;;5035581;28;20045;-76
2023/06/02 10:06:09;;;;;;;7.75;2.85;;;;;;;;;;5035676;28;20049;-78
2023/06/02 10:08:52;;;;;;;7.03;2.72;;;;;;;;;;5036589;28;20444;-77
2023/06/02 10:11:18;;;;;;;5.93;2.80;;;;;;;;;;5036527;28;20089;-77
2023/06/02 10:13:47;;;;;;;8.07;3.05;;;;;;;;;;5052271;28;20118;-77
2023/06/02 10:16:23;;;;;;;6.75;2.60;;;;;;;;;;5047695;28;20119;-77
2023/06/02 10:18:49;;;;;;;;;;;;;;;;;;5035817;28;20060;-77
2023/06/02 10:21:31;;;;;;;8.65;2.78;;;;;;;;;;5034630;28;20363;-77
2023/06/02 10:24:02;;;;;;;8.90;2.50;;;;;;;;;;5034886;28;20041;-77
2023/06/02 10:26:31;;;;;;;8.95;2.63;;;;;;;;;;5016389;28;20120;-77
2023/06/02 10:28:59;;;;;;;4.85;2.38;;;;;;;;;;5034473;28;20060;-77
2023/06/02 10:31:32;;;;;;;8.73;3.17;;;;;;;;;;5044959;28;20037;-77
2023/06/02 10:34:00;;;;;;;8.25;2.47;;;;;;;;;;5054531;28;20047;-77
2023/06/02 10:36:26;;;;;;;5.15;2.22;;;;;;;;;;5054405;28;20072;-77
2023/06/02 10:38:53;;;;;;;6.47;2.40;;;;;;;;;;5054078;28;20052;-77
2023/06/02 10:41:21;;;;;;;6.00;2.53;;;;;;;;;;5047731;28;20041;-80
2023/06/02 10:44:06;;;;;;;5.47;2.40;;;;;;;;;;5050548;28;20049;-77
2023/06/02 10:46:32;;;;;;;6.60;2.58;;;;;;;;;;5032856;28;20070;-76
2023/06/02 10:48:58;;;;;;;6.88;3.17;;;;;;;;;;5031357;28;20504;-76
2023/06/02 10:51:24;;;;;;;6.22;2.65;;;;;;;;;;5032853;28;20053;-77
2023/06/02 10:53:53;;;;;;;7.88;2.70;;;;;;;;;;5032578;28;20488;-77
2023/06/02 10:56:42;;;;;;;5.60;2.70;;;;;;;;;;5034325;28;20386;-76
2023/06/02 10:59:09;;;;;;;6.97;2.58;;;;;;;;;;5030938;28;20053;-76
2023/06/02 11:01:44;;;;;;;6.38;2.35;;;;;;;;;;5034138;28;20372;-76
2023/06/02 11:04:33;;;;;;;3.40;2.15;;;;;;;;;;5032234;28;20474;-76
2023/06/02 11:07:18;;;;;;;5.10;2.33;;;;;;;;;;5024596;28;20079;-76
2023/06/02 11:09:45;;;;;;;5.10;2.40;;;;;;;;;;5021603;28;20396;-77
2023/06/02 11:12:11;;;;;;;5.25;2.50;;;;;;;;;;5012785;28;20053;-76
2023/06/02 11:14:56;;;;;;;5.05;2.70;;;;;;;;;;5012437;28;20045;-77
2023/06/02 11:17:29;;;;;;;7.18;2.60;;;;;;;;;;5022923;28;20044;-76
2023/06/02 11:19:57;;;;;;;4.60;2.55;;;;;;;;;;5036654;28;20102;-76
2023/06/02 11:22:23;;;;;;;3.80;2.30;;;;;;;;;;5053619;28;20053;-76
2023/06/02 11:24:52;;;;;;;6.70;3.03;;;;;;;;;;5032315;28;20085;-77
2023/06/02 11:27:19;;;;;;;4.82;2.40;;;;;;;;;;5033941;28;20041;-76
2023/06/02 11:29:45;;;;;;;6.95;2.50;;;;;;;;;;5039531;28;20060;-76
2023/06/02 11:32:12;;;;;;;5.35;2.75;;;;;;;;;;5053700;28;20428;-76
2023/06/02 11:34:38;;;;;;;11.68;3.10;;;;;;;;;;5031625;28;20046;-77
2023/06/02 11:37:20;;;;;;;8.02;2.90;;;;;;;;;;5047934;28;20056;-76
2023/06/02 11:40:10;;;;;;;7.32;3.20;;;;;;;;;;5027545;28;20064;-76
2023/06/02 11:42:36;;;;;;;5.28;3.00;;;;;;;;;;5032715;28;20049;-76
2023/06/02 11:45:02;;;;;;;5.75;2.88;;;;;;;;;;5032345;28;20056;-76
2023/06/02 11:47:28;;;;;;;5.97;2.95;;;;;;;;;;5031754;28;20045;-76
2023/06/02 11:49:54;;;;;;;5.72;3.08;;;;;;;;;;5026692;28;20049;-76
2023/06/02 11:52:20;;;;;;;8.20;3.20;;;;;;;;;;5033478;28;20045;-76
2023/06/02 11:54:56;;;;;;;7.13;3.20;;;;;;;;;;5020331;28;20041;-76
2023/06/02 11:57:32;;;;;;;7.22;3.15;;;;;;;;;;5013338;28;20104;-76
2023/06/02 12:00:19;;;;;;;7.18;2.85;;;;;;;;;;5013250;28;20049;-76
2023/06/02 12:02:51;;;;;;;5.97;3.17;;;;;;;;;;5012301;28;20455;-76
2023/06/02 12:05:36;;;;;;;6.32;2.90;;;;;;;;;;5021688;28;20472;-76
2023/06/02 12:08:12;;;;;;;10.23;3.47;;;;;;;;;;5032801;28;20496;-76
2023/06/02 12:10:38;;;;;;;6.18;3.03;;;;;;;;;;5015422;28;20060;-75
2023/06/02 12:13:05;;;;;;;5.93;3.13;;;;;;;;;;5033606;28;20046;-76
2023/06/02 12:15:35;;;;;;;7.82;3.53;;;;;;;;;;5027598;28;20449;-76
2023/06/02 12:18:05;;;;;;;8.02;3.50;;;;;;;;;;5028479;28;20057;-76
2023/06/02 12:20:38;;;;;;;10.45;3.65;;;;;;;;;;5021600;28;20129;-76
2023/06/02 12:23:04;;;;;;;5.95;3.03;;;;;;;;;;5037275;28;20384;-76
2023/06/02 12:25:30;;;;;;;8.65;3.53;;;;;;;;;;5036152;28;20038;-76
2023/06/02 12:28:28;;;;;;;7.57;3.30;;;;;;;;;;5031021;28;20049;-76
2023/06/02 12:30:54;;;;;;;7.63;3.50;;;;;;;;;;5017943;28;20050;-76
2023/06/02 12:33:20;;;;;;;6.95;3.80;;;;;;;;;;5036488;28;20119;-76
2023/06/02 12:35:46;;;;;;;7.10;3.58;;;;;;;;;;5035497;28;20044;-76
2023/06/02 12:38:13;;;;;;;11.60;4.10;;;;;;;;;;5029289;28;20128;-76
2023/06/02 12:40:40;;;;;;;8.20;3.55;;;;;;;;;;5026459;28;20483;-76
2023/06/02 12:43:06;;;;;;;7.60;3.95;;;;;;;;;;5030933;28;20547;-76
2023/06/02 12:45:33;;;;;;;8.73;3.72;;;;;;;;;;5032580;28;20104;-76
2023/06/02 12:47:59;;;;;;;6.47;3.28;;;;;;;;;;5032587;28;20050;-76
2023/06/02 12:50:26;;;;;;;7.75;3.38;;;;;;;;;;5028327;28;20479;-76
2023/06/02 12:52:52;;;;;;;8.88;3.72;;;;;;;;;;5028113;28;20179;-76
2023/06/02 12:55:18;;;;;;;7.57;3.78;;;;;;;;;;5031018;28;20409;-76
2023/06/02 12:57:48;;;;;;;8.40;3.92;;;;;;;;;;5032984;28;20126;-76
2023/06/02 13:00:15;;;;;;;11.50;4.22;;;;;;;;;;5032852;28;20120;-76
2023/06/02 13:02:42;;;;;;;6.63;3.83;;;;;;;;;;5032282;28;20488;-76
2023/06/02 13:05:09;;;;;;;6.90;3.33;;;;;;;;;;5032266;28;20131;-76
2023/06/02 13:07:37;;;;;;;7.32;3.28;;;;;;;;;;5031870;28;20068;-76
2023/06/02 13:10:03;;;;;;;7.40;3.67;;;;;;;;;;5034000;28;20511;-76
2023/06/02 13:12:29;;;;;;;4.10;3.20;;;;;;;;;;5016938;28;20042;-76
2023/06/02 13:14:55;;;;;;;8.00;3.25;;;;;;;;;;5016152;28;20050;-76
2023/06/02 13:17:21;;;;;;;5.90;2.80;;;;;;;;;;5020479;28;20121;-76
2023/06/02 13:19:48;;;;;;;6.63;3.25;;;;;;;;;;5034201;28;20080;-76
2023/06/02 13:22:17;;;;;;;5.85;3.20;;;;;;;;;;5036702;28;20046;-76
2023/06/02 13:24:43;;;;;;;5.85;3.00;;;;;;;;;;5014930;28;20053;-76
2023/06/02 13:27:09;;;;;;;7.45;3.60;;;;;;;;;;5015706;28;20049;-76
2023/06/02 13:29:35;;;;;;;7.28;3.13;;;;;;;;;;5016198;28;20042;-76
2023/06/02 13:32:01;;;;;;;7.57;3.53;;;;;;;;;;5035539;28;20053;-76
2023/06/02 13:34:31;;;;;;;5.35;3.47;;;;;;;;;;5027256;28;20103;-76
2023/06/02 13:36:58;;;;;;;9.65;3.70;;;;;;;;;;5015868;28;20038;-76
2023/06/02 13:39:24;;;;;;;7.43;4.07;;;;;;;;;;5016027;28;20504;-76
2023/06/02 13:41:50;;;;;;;8.18;3.72;;;;;;;;;;5019352;28;20049;-76
2023/06/02 13:44:20;;;;;;;5.90;3.47;;;;;;;;;;5025859;28;20107;-76
2023/06/02 13:46:46;;;;;;;7.55;4.07;;;;;;;;;;5035502;28;20049;-76
2023/06/02 13:49:16;;;;;;;7.55;3.70;;;;;;;;;;5035506;28;20147;-76
2023/06/02 13:51:43;;;;;;;6.25;3.40;;;;;;;;;;5027728;28;20049;-76
2023/06/02 13:54:10;;;;;;;10.25;4.13;;;;;;;;;;5014385;28;20444;-76
2023/06/02 13:56:36;;;;;;;8.32;4.13;;;;;;;;;;5026857;28;20557;-78
2023/06/02 13:59:02;;;;;;;6.07;3.60;;;;;;;;;;5039520;28;20053;-76
2023/06/02 14:01:28;;;;;;;7.03;4.10;;;;;;;;;;5041752;28;20046;-76
2023/06/02 14:03:54;;;;;;;10.73;4.63;;;;;;;;;;5015220;28;20046;-76
2023/06/02 14:06:20;;;;;;;6.57;4.47;;;;;;;;;;5015678;28;20052;-76
2023/06/02 14:08:46;;;;;;;10.43;4.82;;;;;;;;;;5025164;28;20127;-76
2023/06/02 14:11:12;;;;;;;9.32;5.15;;;;;;;;;;5035362;28;20046;-76
2023/06/02 14:13:38;;;;;;;8.18;4.40;;;;;;;;;;5034535;28;20091;-76
2023/06/02 14:16:05;;;;;;;8.45;4.32;;;;;;;;;;5032663;28;20046;-76
2023/06/02 14:18:31;;;;;;;10.07;4.50;;;;;;;;;;5014934;28;20046;-76
2023/06/02 14:20:57;;;;;;;7.97;4.18;;;;;;;;;;5034531;28;20408;-76
2023/06/02 14:23:23;;;;;;;10.30;4.90;;;;;;;;;;5034775;28;20056;-76
2023/06/02 14:25:49;;;;;;;7.93;4.82;;;;;;;;;;5015446;28;20038;-76
2023/06/02 14:28:15;;;;;;;6.95;4.57;;;;;;;;;;5016596;28;20125;-76
2023/06/02 14:30:41;;;;;;;8.57;4.45;;;;;;;;;;5015017;28;20081;-76
2023/06/02 14:33:07;;;;;;;7.50;4.45;;;;;;;;;;5015357;28;20038;-76
2023/06/02 14:35:33;;;;;;;9.00;5.03;;;;;;;;;;5023165;28;20084;-76
2023/06/02 14:37:59;;;;;;;8.15;4.32;;;;;;;;;;5034694;28;20514;-76